Time;durP1;ratioP1;P1;durP2;ratioP2;P2;SDS_P1;SDS_P2;PMS_P1;PMS_P2;Temp;Humidity;BMP_temperature;BMP_pressure;BME280_temperature;BME280_humidity;BME280_pressure;Samples;Min_cycle;Max_cycle;Signal;HPM_P1;HPM_P2
2021/03/31 00:00:52;;;;;;;5.70;2.93;;;;;;;19.00;46.28;100523.44;2060711;28;20134;-67
2021/03/31 00:01:53;;;;;;;5.57;2.90;;;;;;;18.99;46.57;100521.72;2058893;28;20631;-67
2021/03/31 00:02:58;;;;;;;4.33;2.50;;;;;;;18.99;46.44;100510.78;2063402;28;20030;-67
2021/03/31 00:03:58;;;;;;;4.13;2.38;;;;;;;18.99;46.37;100521.72;2062568;28;20117;-67
2021/03/31 00:04:59;;;;;;;4.70;2.80;;;;;;;18.98;46.41;100520.84;2063675;28;20038;-67
2021/03/31 00:05:59;;;;;;;4.40;2.73;;;;;;;18.98;46.51;100515.38;2059601;28;20030;-67
2021/03/31 00:07:00;;;;;;;4.10;2.83;;;;;;;18.99;46.53;100516.25;2063386;28;20042;-67
2021/03/31 00:08:00;;;;;;;4.27;3.27;;;;;;;18.98;46.32;100509.03;2062614;28;20767;-67
2021/03/31 00:09:01;;;;;;;5.50;3.00;;;;;;;18.98;46.45;100506.31;2061650;28;20034;-67
2021/03/31 00:10:12;;;;;;;3.87;2.97;;;;;;;18.96;46.38;100509.19;2063648;28;20575;-67
2021/03/31 00:11:13;;;;;;;3.78;2.40;;;;;;;18.97;46.50;100510.06;2062912;28;20404;-67
2021/03/31 00:12:13;;;;;;;4.03;2.73;;;;;;;18.98;46.40;100503.56;2063313;28;20109;-67
2021/03/31 00:13:15;;;;;;;4.90;2.57;;;;;;;18.98;46.49;100506.31;2062445;28;20045;-67
2021/03/31 00:14:18;;;;;;;4.55;2.50;;;;;;;18.98;46.45;100506.31;2063515;28;20038;-67
2021/03/31 00:15:20;;;;;;;6.05;2.95;;;;;;;18.98;46.37;100509.03;2062422;28;20034;-67
2021/03/31 00:16:20;;;;;;;4.85;2.75;;;;;;;18.97;46.34;100493.66;2062672;28;20444;-67
2021/03/31 00:17:21;;;;;;;3.63;2.60;;;;;;;18.96;46.47;100498.28;2063266;28;20096;-67
2021/03/31 00:18:22;;;;;;;4.67;2.87;;;;;;;18.96;46.39;100495.53;2062523;28;20034;-68
2021/03/31 00:19:22;;;;;;;3.97;2.85;;;;;;;18.97;46.30;100493.66;2058513;28;20044;-67
2021/03/31 00:20:23;;;;;;;5.40;3.00;;;;;;;18.97;46.43;100490.94;2059246;28;20080;-67
2021/03/31 00:21:24;;;;;;;3.20;2.63;;;;;;;18.97;46.18;100490.94;2063234;28;20022;-67
2021/03/31 00:22:24;;;;;;;3.97;2.80;;;;;;;18.97;46.23;100490.94;2063306;28;20030;-67
2021/03/31 00:23:27;;;;;;;4.30;2.70;;;;;;;18.98;46.18;100493.50;2063121;28;20034;-67
2021/03/31 00:24:27;;;;;;;4.57;2.70;;;;;;;18.98;46.31;100495.38;2062726;28;20073;-67
2021/03/31 00:25:28;;;;;;;4.37;2.70;;;;;;;18.99;46.07;100494.41;2058603;28;20030;-67
2021/03/31 00:26:28;;;;;;;4.27;2.70;;;;;;;18.99;46.23;100494.41;2058071;28;20046;-67
2021/03/31 00:27:29;;;;;;;4.90;3.00;;;;;;;18.98;46.07;100492.66;2062279;28;20035;-67
2021/03/31 00:28:29;;;;;;;4.10;2.70;;;;;;;18.98;46.22;100493.50;2062024;28;20046;-67
2021/03/31 00:29:29;;;;;;;4.73;2.83;;;;;;;18.98;46.26;100498.13;2063001;28;20062;-67
2021/03/31 00:30:30;;;;;;;4.53;2.63;;;;;;;18.98;46.26;100498.97;2059048;28;20030;-67
2021/03/31 00:31:31;;;;;;;4.47;3.07;;;;;;;18.98;46.26;100498.13;2054799;28;20037;-67
2021/03/31 00:32:31;;;;;;;3.80;2.57;;;;;;;18.98;46.18;100489.91;2063221;28;20726;-67
2021/03/31 00:33:31;;;;;;;4.57;3.30;;;;;;;18.98;46.32;100492.66;2062044;28;20493;-67
2021/03/31 00:34:32;;;;;;;4.60;2.73;;;;;;;18.98;46.25;100492.66;2061354;28;20113;-67
2021/03/31 00:35:33;;;;;;;5.40;2.70;;;;;;;18.98;46.33;100495.38;2060399;28;20029;-67
2021/03/31 00:36:33;;;;;;;4.43;2.43;;;;;;;18.97;46.10;100491.78;2060346;28;20038;-67
2021/03/31 00:37:36;;;;;;;4.90;2.47;;;;;;;18.97;46.37;100490.94;2061635;28;20035;-67
2021/03/31 00:38:36;;;;;;;4.00;2.80;;;;;;;18.96;46.10;100484.63;2062010;28;20402;-67
2021/03/31 00:39:36;;;;;;;3.63;2.27;;;;;;;18.96;46.22;100484.63;2062538;28;20049;-66
2021/03/31 00:40:43;;;;;;;5.53;3.30;;;;;;;18.95;46.33;100482.00;2063499;28;20030;-67
2021/03/31 00:41:44;;;;;;;4.40;2.83;;;;;;;18.96;46.43;100486.47;2061667;28;20410;-67
2021/03/31 00:42:46;;;;;;;5.20;2.70;;;;;;;18.95;46.26;100479.28;2063042;28;20044;-67
2021/03/31 00:43:47;;;;;;;3.33;2.22;;;;;;;18.96;46.42;100486.47;2055500;28;20038;-67
2021/03/31 00:44:47;;;;;;;5.40;2.97;;;;;;;18.97;46.43;100485.47;2057433;28;20137;-66
2021/03/31 00:45:48;;;;;;;4.73;2.43;;;;;;;18.96;46.39;100479.16;2063280;28;20389;-67
2021/03/31 00:46:49;;;;;;;4.73;3.10;;;;;;;18.97;46.31;100480.00;2062916;28;20030;-67
2021/03/31 00:47:49;;;;;;;3.47;2.53;;;;;;;18.96;46.41;100479.16;2062807;28;20018;-66
2021/03/31 00:48:50;;;;;;;4.03;2.87;;;;;;;18.96;46.38;100465.50;2061154;28;20034;-67
2021/03/31 00:49:50;;;;;;;4.23;2.53;;;;;;;18.96;46.32;100472.81;2059907;28;20378;-66
2021/03/31 00:50:54;;;;;;;3.67;2.60;;;;;;;18.96;46.23;100473.69;2062516;28;20034;-66
2021/03/31 00:51:55;;;;;;;4.05;2.63;;;;;;;18.97;46.22;100477.28;2058012;28;20313;-67
2021/03/31 00:52:57;;;;;;;3.63;2.83;;;;;;;18.96;46.41;100481.00;2062668;28;20026;-66
2021/03/31 00:53:58;;;;;;;4.13;2.70;;;;;;;18.96;46.16;100472.81;2062827;28;20033;-66
2021/03/31 00:54:59;;;;;;;3.83;2.70;;;;;;;18.96;46.27;100464.59;2063071;28;20058;-66
2021/03/31 00:56:00;;;;;;;3.80;2.50;;;;;;;18.96;46.41;100475.53;2062604;28;20052;-66
2021/03/31 00:57:01;;;;;;;5.50;2.63;;;;;;;18.95;46.26;100462.88;2062968;28;20069;-66
2021/03/31 00:58:02;;;;;;;3.73;2.70;;;;;;;18.96;46.23;100467.34;2062561;28;20062;-67
2021/03/31 00:59:02;;;;;;;3.75;2.67;;;;;;;18.95;46.18;100476.53;2063352;28;20034;-66
2021/03/31 01:00:05;;;;;;;4.70;2.73;;;;;;;18.96;46.24;100470.06;2061622;28;20054;-66
2021/03/31 01:01:06;;;;;;;5.32;2.67;;;;;;;18.97;46.29;100469.09;2062609;28;20105;-67
2021/03/31 01:02:07;;;;;;;4.22;2.65;;;;;;;18.95;46.25;100465.63;2055825;28;20400;-67
2021/03/31 01:03:08;;;;;;;4.87;2.80;;;;;;;18.96;46.23;100467.34;2062046;28;20115;-66
2021/03/31 01:04:08;;;;;;;3.87;2.53;;;;;;;18.95;46.40;100457.44;2063213;28;20045;-66
2021/03/31 01:05:17;;;;;;;5.47;2.70;;;;;;;18.94;46.33;100458.44;2057574;28;20137;-66
2021/03/31 01:06:18;;;;;;;5.18;2.83;;;;;;;18.95;46.42;100460.16;2062113;28;20037;-66
2021/03/31 01:07:18;;;;;;;3.13;2.20;;;;;;;18.94;46.36;100458.44;2063029;28;20034;-66
2021/03/31 01:08:19;;;;;;;3.50;2.50;;;;;;;18.94;46.18;100452.97;2062936;28;20022;-66
2021/03/31 01:09:19;;;;;;;4.13;2.03;;;;;;;18.93;46.33;100452.09;2062629;28;20037;-67
2021/03/31 01:10:25;;;;;;;4.03;2.70;;;;;;;18.94;46.28;100452.97;2060728;28;20038;-67
2021/03/31 01:11:47;;;;;;;3.58;2.30;;;;;;;18.93;46.35;100451.22;2056253;28;20030;-67
2021/03/31 01:13:08;;;;;;;3.72;2.60;;;;;;;18.91;46.41;100453.25;2061263;28;20434;-66
2021/03/31 01:14:37;;;;;;;3.53;2.50;;;;;;;18.92;46.37;100449.53;2059094;28;20093;-66
2021/03/31 01:15:59;;;;;;;4.18;2.67;;;;;;;18.89;46.33;100444.31;2054313;28;20675;-67
2021/03/31 01:17:08;;;;;;;4.55;2.92;;;;;;;18.89;46.44;100449.78;2062208;28;20034;-67
2021/03/31 01:18:08;;;;;;;5.05;3.25;;;;;;;18.90;46.36;100448.78;2062116;28;20042;-67
2021/03/31 01:19:42;;;;;;;5.97;2.93;;;;;;;18.89;46.48;100447.03;2062614;28;20034;-67
2021/03/31 01:21:04;;;;;;;4.60;2.70;;;;;;;18.90;46.49;100446.06;2060604;28;20072;-66
2021/03/31 01:22:44;;;;;;;5.28;2.45;;;;;;;18.86;46.40;100445.47;2062478;28;20481;-67
2021/03/31 01:24:22;;;;;;;3.70;2.30;;;;;;;18.87;46.49;100451.81;2061831;28;20054;-66
2021/03/31 01:25:33;;;;;;;5.32;3.05;;;;;;;18.87;46.42;100446.34;2059529;28;20040;-67
2021/03/31 01:26:34;;;;;;;3.97;2.75;;;;;;;18.88;46.49;100442.59;2062600;28;20037;-66
2021/03/31 01:27:40;;;;;;;3.47;2.80;;;;;;;18.88;46.31;100442.59;2062978;28;20073;-67
2021/03/31 01:28:59;;;;;;;3.72;2.58;;;;;;;18.89;46.38;100444.31;2060866;28;20034;-67
2021/03/31 01:30:11;;;;;;;4.22;2.75;;;;;;;18.88;46.38;100439.88;2061707;28;20037;-67
2021/03/31 01:31:30;;;;;;;3.15;2.08;;;;;;;18.87;46.37;100436.28;2055898;28;20031;-67
2021/03/31 01:32:33;;;;;;;4.07;2.80;;;;;;;18.87;46.48;100435.41;2059971;28;20118;-66
2021/03/31 01:35:40;;;;;;;5.53;2.70;;;;;;;18.85;46.24;100430.94;2059682;28;20034;-65
2021/03/31 01:36:44;;;;;;;5.05;2.70;;;;;;;18.85;46.44;100428.22;2057901;28;20113;-65
2021/03/31 01:37:53;;;;;;;4.05;2.67;;;;;;;18.87;46.32;100429.97;2062117;28;20022;-66
2021/03/31 01:38:59;;;;;;;5.25;2.38;;;;;;;18.88;46.44;100426.22;2061991;28;20397;-65
2021/03/31 01:40:03;;;;;;;3.60;2.38;;;;;;;18.88;46.21;100426.22;2059664;28;20018;-67
2021/03/31 01:41:05;;;;;;;5.05;2.72;;;;;;;18.89;46.44;100422.47;2062854;28;20441;-66
2021/03/31 01:42:09;;;;;;;4.25;2.85;;;;;;;18.88;46.44;100421.59;2057891;28;20033;-66
2021/03/31 01:43:14;;;;;;;5.22;2.65;;;;;;;18.88;46.38;100421.59;2056273;28;20065;-66
2021/03/31 01:44:16;;;;;;;3.42;2.50;;;;;;;18.89;46.39;100417.00;2062698;28;20030;-66
2021/03/31 01:45:21;;;;;;;4.00;2.53;;;;;;;18.88;46.38;100421.59;2060048;28;20161;-66
2021/03/31 01:46:29;;;;;;;4.00;2.70;;;;;;;18.90;46.17;100421.47;2050781;28;20054;-66
2021/03/31 01:47:33;;;;;;;4.03;2.38;;;;;;;18.90;46.33;100424.22;2060490;28;20015;-66
2021/03/31 01:48:35;;;;;;;3.35;2.47;;;;;;;18.89;46.22;100411.53;2060967;28;20069;-66
2021/03/31 01:49:36;;;;;;;3.85;2.10;;;;;;;18.90;46.40;100413.28;2052086;28;20034;-66
2021/03/31 01:50:39;;;;;;;5.43;2.60;;;;;;;18.90;46.12;100410.56;2061226;28;20184;-66
2021/03/31 01:51:41;;;;;;;4.30;2.47;;;;;;;18.90;46.19;100405.09;2062456;28;20117;-66
2021/03/31 01:52:42;;;;;;;;;;;;;;;18.85;46.31;100403.63;2056014;28;20030;-66
2021/03/31 01:53:43;;;;;;;4.53;2.67;;;;;;;18.87;46.42;100405.38;2056557;28;19913;-66
2021/03/31 01:54:45;;;;;;;3.67;2.28;;;;;;;18.87;46.46;100397.19;2062990;28;20097;-66
2021/03/31 01:55:52;;;;;;;3.25;2.25;;;;;;;18.85;46.33;100400.91;2061570;28;20041;-66
2021/03/31 01:56:54;;;;;;;2.70;2.28;;;;;;;18.87;46.39;100402.66;2060357;28;20022;-66
2021/03/31 01:57:56;;;;;;;3.70;2.45;;;;;;;18.89;46.33;100406.06;2055261;28;20702;-66
2021/03/31 01:58:57;;;;;;;5.60;2.60;;;;;;;18.88;46.31;100404.34;2058501;28;20026;-66
2021/03/31 01:59:59;;;;;;;4.82;2.72;;;;;;;18.88;46.32;100398.91;2061373;28;20026;-67
2021/03/31 02:01:00;;;;;;;3.90;2.63;;;;;;;18.88;46.45;100393.44;2062099;28;20048;-66
2021/03/31 02:02:02;;;;;;;4.40;2.80;;;;;;;18.89;46.45;100395.16;2061971;28;20034;-67
2021/03/31 02:03:24;;;;;;;2.60;2.38;;;;;;;18.88;46.31;100396.16;2062849;28;20109;-66
2021/03/31 02:04:25;;;;;;;3.75;2.72;;;;;;;18.88;46.24;100394.28;2061861;28;20537;-66
2021/03/31 02:05:27;;;;;;;;;;;;;;;18.82;46.48;100395.72;2060012;28;20030;-66
2021/03/31 02:06:30;;;;;;;2.92;2.25;;;;;;;18.85;46.39;100397.31;2054736;28;19929;-66
2021/03/31 02:07:31;;;;;;;3.20;2.80;;;;;;;18.87;46.51;100394.44;2060475;28;20104;-66
2021/03/31 02:08:32;;;;;;;3.60;2.33;;;;;;;18.87;46.39;100397.19;2055731;28;20034;-66
2021/03/31 02:09:39;;;;;;;3.33;2.70;;;;;;;18.87;46.46;100391.72;2062814;28;20041;-66
2021/03/31 02:10:43;;;;;;;3.28;2.40;;;;;;;18.87;46.38;100397.19;2061955;28;20117;-66
2021/03/31 02:11:45;;;;;;;4.30;2.72;;;;;;;18.88;46.41;100398.91;2067974;28;20030;-66
2021/03/31 02:12:46;;;;;;;4.90;2.55;;;;;;;18.87;46.56;100394.44;2066696;28;20045;-66
2021/03/31 02:13:47;;;;;;;3.47;2.40;;;;;;;18.87;46.39;100391.72;2060433;28;20057;-66
2021/03/31 02:14:50;;;;;;;;;;;;;;;18.83;46.52;100402.91;2063188;28;20026;-66
2021/03/31 02:15:56;;;;;;;3.72;2.90;;;;;;;18.83;46.51;100386.50;2061718;28;19921;-66
2021/03/31 02:16:58;;;;;;;3.53;2.35;;;;;;;18.85;46.42;100387.25;2062267;28;20429;-66
2021/03/31 02:18:00;;;;;;;3.45;2.60;;;;;;;18.85;46.44;100389.97;2061214;28;20065;-66
2021/03/31 02:19:01;;;;;;;3.55;2.60;;;;;;;18.84;46.43;100382.81;2058005;28;20050;-66
2021/03/31 02:20:03;;;;;;;4.73;2.33;;;;;;;18.86;46.34;100385.38;2052082;28;20026;-66
2021/03/31 02:21:04;;;;;;;3.92;2.53;;;;;;;18.86;46.27;100385.38;2060455;28;20034;-66
2021/03/31 02:22:06;;;;;;;3.27;2.60;;;;;;;18.87;46.35;100384.38;2059018;28;20030;-66
2021/03/31 02:23:08;;;;;;;3.47;2.22;;;;;;;18.87;46.26;100380.78;2054622;28;20612;-66
2021/03/31 02:24:12;;;;;;;3.10;2.60;;;;;;;18.87;46.23;100380.78;2059962;28;20404;-67
2021/03/31 02:25:14;;;;;;;4.07;2.30;;;;;;;18.87;46.39;100380.78;2061489;28;20034;-66
2021/03/31 02:26:16;;;;;;;3.17;2.50;;;;;;;18.85;46.35;100373.59;2062450;28;20026;-66
2021/03/31 02:27:18;;;;;;;2.90;2.20;;;;;;;18.87;46.35;100378.06;2062328;28;20038;-66
2021/03/31 02:28:18;;;;;;;3.95;2.95;;;;;;;18.86;46.38;100382.63;2061291;28;20486;-65
2021/03/31 02:29:19;;;;;;;3.67;2.60;;;;;;;18.86;46.30;100379.91;2059968;28;20475;-66
2021/03/31 02:30:24;;;;;;;3.73;3.10;;;;;;;18.84;46.32;100374.59;2062342;28;20101;-66
2021/03/31 02:31:25;;;;;;;3.20;2.20;;;;;;;18.85;46.51;100376.31;2062565;28;20041;-66
2021/03/31 02:32:27;;;;;;;4.20;2.83;;;;;;;18.86;46.27;100374.44;2062044;28;20029;-66
2021/03/31 02:33:30;;;;;;;3.55;2.85;;;;;;;18.84;46.28;100371.88;2062655;28;20109;-66
2021/03/31 02:34:31;;;;;;;3.33;2.22;;;;;;;18.86;46.26;100374.44;2061876;28;20064;-66
2021/03/31 02:35:33;;;;;;;4.18;2.17;;;;;;;18.84;46.18;100376.47;2062229;28;20468;-66
2021/03/31 02:36:36;;;;;;;4.32;2.78;;;;;;;18.85;46.36;100376.31;2061214;28;20061;-66
2021/03/31 02:37:39;;;;;;;2.58;2.20;;;;;;;18.86;46.26;100374.44;2059322;28;20370;-67
2021/03/31 02:38:41;;;;;;;3.35;2.17;;;;;;;18.85;46.38;100370.84;2055458;28;20030;-67
2021/03/31 02:39:45;;;;;;;4.80;2.33;;;;;;;18.84;46.23;100366.41;2062252;28;20014;-66
2021/03/31 02:40:47;;;;;;;3.30;2.53;;;;;;;18.84;46.26;100371.03;2061076;28;20037;-66
2021/03/31 02:41:51;;;;;;;4.55;2.35;;;;;;;18.83;46.51;100370.13;2062821;28;20035;-66
2021/03/31 02:42:54;;;;;;;3.47;2.63;;;;;;;18.84;46.26;100369.16;2061298;28;20026;-66
2021/03/31 02:43:57;;;;;;;3.40;2.50;;;;;;;18.83;46.23;100370.13;2060047;28;20053;-66
2021/03/31 02:44:59;;;;;;;4.10;2.85;;;;;;;18.83;46.29;100367.41;2060310;28;20022;-66
2021/03/31 02:46:02;;;;;;;3.72;2.35;;;;;;;18.83;46.36;100359.19;2061455;28;20327;-66
2021/03/31 02:47:05;;;;;;;3.35;2.28;;;;;;;18.82;46.42;100365.69;2062495;28;20026;-66
2021/03/31 02:48:08;;;;;;;4.05;2.20;;;;;;;18.83;46.30;100363.81;2061373;28;20133;-66
2021/03/31 02:49:10;;;;;;;2.90;2.15;;;;;;;18.83;46.27;100358.34;2065646;28;20092;-66
2021/03/31 02:50:17;;;;;;;2.92;2.20;;;;;;;18.82;46.26;100357.50;2066305;28;20033;-66
2021/03/31 02:51:19;;;;;;;3.05;2.38;;;;;;;18.84;46.24;100360.94;2058791;28;20030;-66
2021/03/31 02:52:21;;;;;;;3.33;2.42;;;;;;;18.83;46.27;100359.19;2061085;28;20042;-66
2021/03/31 02:53:24;;;;;;;5.53;2.35;;;;;;;18.83;46.45;100353.75;2061607;28;20180;-66
2021/03/31 02:54:26;;;;;;;4.82;2.53;;;;;;;18.83;46.10;100356.47;2061748;28;20204;-66
2021/03/31 02:55:27;;;;;;;4.15;2.47;;;;;;;18.83;46.43;100358.34;2062549;28;20037;-66
2021/03/31 02:56:32;;;;;;;4.50;2.13;;;;;;;18.82;46.24;100357.50;2061112;28;20048;-66
2021/03/31 02:57:35;;;;;;;3.00;2.20;;;;;;;18.82;46.49;100357.50;2061262;28;20029;-66
2021/03/31 02:58:42;;;;;;;2.65;2.15;;;;;;;18.81;46.43;100360.34;2061681;28;20025;-66
2021/03/31 02:59:44;;;;;;;3.67;2.63;;;;;;;18.81;46.60;100361.25;2061695;28;20720;-66
2021/03/31 03:00:44;;;;;;;;;;;;;;;18.78;46.55;100350.56;2061863;28;20022;-66
2021/03/31 03:01:45;;;;;;;4.95;2.80;;;;;;;18.78;46.65;100361.50;2060776;28;19928;-66
2021/03/31 03:02:46;;;;;;;2.80;2.10;;;;;;;18.79;46.54;100354.16;2061540;28;20025;-66
2021/03/31 03:03:47;;;;;;;3.30;2.35;;;;;;;18.79;46.48;100357.78;2061795;28;20060;-66
2021/03/31 03:04:49;;;;;;;3.80;2.67;;;;;;;18.80;46.44;100353.19;2061097;28;20564;-66
2021/03/31 03:05:49;;;;;;;;;;;;;;;18.75;46.47;100350.84;2056335;28;20031;-66
2021/03/31 03:06:51;;;;;;;4.07;2.53;;;;;;;18.77;46.65;100345.28;2053547;28;19914;-66
2021/03/31 03:07:51;;;;;;;3.28;2.38;;;;;;;18.76;46.39;100344.38;2061290;28;20033;-66
2021/03/31 03:08:55;;;;;;;4.60;2.43;;;;;;;18.77;46.48;100348.88;2060119;28;20078;-66
2021/03/31 03:09:56;;;;;;;3.85;2.47;;;;;;;18.78;46.53;100345.13;2060562;28;20034;-66
2021/03/31 03:10:59;;;;;;;3.75;2.15;;;;;;;18.79;46.36;100345.97;2061572;28;20073;-66
2021/03/31 03:12:00;;;;;;;3.50;2.38;;;;;;;18.78;46.50;100339.66;2061684;28;20496;-66
2021/03/31 03:13:02;;;;;;;3.10;2.78;;;;;;;18.79;46.58;100343.25;2061218;28;20547;-66
2021/03/31 03:14:04;;;;;;;4.32;2.38;;;;;;;18.78;46.46;100347.84;2057934;28;20037;-67
2021/03/31 03:15:05;;;;;;;;;;;;;;;18.75;46.64;100339.06;2061116;28;20085;-66
2021/03/31 03:16:06;;;;;;;2.83;2.30;;;;;;;18.76;46.50;100336.19;2057844;28;19913;-67
2021/03/31 03:17:07;;;;;;;4.18;2.53;;;;;;;18.77;46.50;100343.41;2057798;28;20065;-67
2021/03/31 03:18:08;;;;;;;3.83;2.73;;;;;;;18.77;46.38;100337.94;2061953;28;20315;-66
2021/03/31 03:19:08;;;;;;;3.87;2.10;;;;;;;18.78;46.49;100341.53;2061309;28;20030;-66
2021/03/31 03:20:11;;;;;;;3.97;2.27;;;;;;;18.78;46.56;100339.66;2060057;28;20026;-66
2021/03/31 03:21:14;;;;;;;3.50;2.33;;;;;;;18.77;46.45;100337.94;2059317;28;20022;-67
2021/03/31 03:22:15;;;;;;;3.88;2.45;;;;;;;18.78;46.42;100339.66;2058131;28;20022;-67
2021/03/31 03:23:17;;;;;;;3.10;2.10;;;;;;;18.78;46.54;100339.66;2062312;28;20599;-67
2021/03/31 03:24:18;;;;;;;2.70;2.40;;;;;;;18.78;46.42;100342.38;2062146;28;20035;-67
2021/03/31 03:25:22;;;;;;;3.60;2.63;;;;;;;18.79;46.43;100337.78;2061518;28;20109;-66
2021/03/31 03:26:23;;;;;;;3.67;2.38;;;;;;;18.77;46.49;100337.94;2054587;28;20022;-66
2021/03/31 03:27:24;;;;;;;3.40;2.47;;;;;;;18.79;46.67;100340.50;2061691;28;20068;-66
2021/03/31 03:28:26;;;;;;;2.60;2.10;;;;;;;18.78;46.38;100342.38;2061692;28;20100;-66
2021/03/31 03:30:16;;;;;;;2.92;2.00;;;;;;;18.76;46.81;100340.78;2061675;28;20057;-66
2021/03/31 03:31:17;;;;;;;2.88;2.17;;;;;;;18.76;46.62;100340.78;2058741;28;20442;-67
2021/03/31 03:32:18;;;;;;;2.53;2.20;;;;;;;18.77;46.46;100343.41;2061943;28;20061;-66
2021/03/31 03:33:22;;;;;;;3.87;2.27;;;;;;;18.77;46.63;100343.41;2059936;28;20452;-67
2021/03/31 03:34:23;;;;;;;3.33;2.38;;;;;;;18.78;46.40;100345.13;2057289;28;20861;-67
2021/03/31 03:35:25;;;;;;;2.70;2.23;;;;;;;18.77;46.45;100339.81;2056615;28;20108;-66
2021/03/31 03:36:26;;;;;;;2.80;2.30;;;;;;;18.77;46.61;100343.41;2062131;28;20030;-67
2021/03/31 03:37:27;;;;;;;4.43;2.70;;;;;;;18.77;46.37;100337.94;2061818;28;20109;-66
2021/03/31 03:38:28;;;;;;;3.50;2.20;;;;;;;18.78;46.44;100336.91;2060376;28;20046;-66
2021/03/31 03:39:28;;;;;;;3.00;2.50;;;;;;;18.77;46.56;100337.94;2061911;28;20505;-65
2021/03/31 03:40:29;;;;;;;3.53;2.13;;;;;;;18.78;46.41;100339.66;2061468;28;20081;-66
2021/03/31 03:41:30;;;;;;;2.80;2.23;;;;;;;18.77;46.39;100340.66;2061285;28;20057;-66
2021/03/31 03:42:30;;;;;;;3.73;2.60;;;;;;;18.76;46.54;100341.66;2061102;28;20041;-66
2021/03/31 03:43:31;;;;;;;3.57;2.73;;;;;;;18.77;46.31;100337.94;2061115;28;20041;-66
2021/03/31 03:44:31;;;;;;;2.87;1.90;;;;;;;18.77;46.44;100337.94;2062400;28;20069;-66
2021/03/31 03:45:33;;;;;;;4.57;2.30;;;;;;;18.76;46.40;100336.19;2061331;28;20025;-66
2021/03/31 03:46:35;;;;;;;3.17;1.90;;;;;;;18.76;46.34;100332.59;2061252;28;20540;-65
2021/03/31 03:47:36;;;;;;;;;;;;;;;18.72;46.73;100340.19;2062018;28;20073;-65
2021/03/31 03:48:37;;;;;;;3.35;2.55;;;;;;;18.73;46.59;100335.59;2060092;28;19913;-65
2021/03/31 03:49:38;;;;;;;3.60;2.10;;;;;;;18.72;46.48;100334.75;2062231;28;20058;-65
2021/03/31 03:50:38;;;;;;;4.33;2.10;;;;;;;18.73;46.48;100339.19;2057885;28;20034;-66
2021/03/31 03:51:39;;;;;;;2.43;2.10;;;;;;;18.74;46.68;100340.94;2060602;28;20562;-66
2021/03/31 03:52:43;;;;;;;3.27;1.97;;;;;;;18.74;46.24;100337.31;2054828;28;20772;-67
2021/03/31 03:53:44;;;;;;;5.13;2.22;;;;;;;18.75;46.23;100328.97;2056865;28;20858;-67
2021/03/31 03:54:51;;;;;;;2.60;2.10;;;;;;;18.73;46.44;100330.13;2053426;28;20401;-67
2021/03/31 03:55:52;;;;;;;2.65;2.05;;;;;;;18.75;46.24;100323.53;2058665;28;20034;-66
2021/03/31 03:56:53;;;;;;;2.93;2.17;;;;;;;18.75;46.43;100322.66;2061152;28;20511;-67
2021/03/31 03:57:54;;;;;;;4.13;2.40;;;;;;;18.76;46.40;100330.72;2055336;28;20031;-66
2021/03/31 03:58:54;;;;;;;3.63;2.83;;;;;;;18.76;46.21;100324.41;2058565;28;20060;-66
2021/03/31 03:59:55;;;;;;;3.63;2.30;;;;;;;18.74;46.39;100324.53;2062183;28;20280;-66
2021/03/31 04:00:56;;;;;;;3.35;2.13;;;;;;;18.75;46.52;100323.53;2061283;28;20029;-67
2021/03/31 04:01:57;;;;;;;5.57;2.25;;;;;;;18.75;46.57;100323.53;2061409;28;20027;-67
2021/03/31 04:02:57;;;;;;;3.70;2.33;;;;;;;18.74;46.36;100324.53;2062028;28;20564;-66
2021/03/31 04:03:58;;;;;;;3.67;2.07;;;;;;;18.74;46.46;100321.81;2061183;28;20031;-66
2021/03/31 04:04:58;;;;;;;3.10;2.80;;;;;;;18.74;46.50;100320.91;2062410;28;20041;-66
2021/03/31 04:05:59;;;;;;;3.07;2.23;;;;;;;18.74;46.67;100321.81;2060852;28;20071;-66
2021/03/31 04:06:59;;;;;;;3.87;2.67;;;;;;;18.73;46.53;100325.53;2061530;28;20446;-67
2021/03/31 04:08:00;;;;;;;3.80;2.17;;;;;;;18.74;46.56;100324.53;2055574;28;20461;-66
2021/03/31 04:09:00;;;;;;;2.73;2.27;;;;;;;18.74;46.51;100324.53;2057757;28;20109;-66
2021/03/31 04:10:02;;;;;;;3.73;2.37;;;;;;;18.73;46.53;100322.78;2062346;28;20633;-66
2021/03/31 04:11:04;;;;;;;3.42;2.13;;;;;;;18.73;46.61;100325.53;2061239;28;20381;-65
2021/03/31 04:12:06;;;;;;;4.38;2.20;;;;;;;18.74;46.39;100321.81;2061741;28;20042;-66
2021/03/31 04:13:07;;;;;;;2.58;2.17;;;;;;;18.75;46.54;100328.97;2062565;28;20485;-66
2021/03/31 04:14:08;;;;;;;2.90;2.03;;;;;;;18.74;46.47;100320.91;2059651;28;20422;-67
2021/03/31 04:15:10;;;;;;;2.65;1.98;;;;;;;18.74;46.48;100326.38;2063189;28;20465;-66
2021/03/31 04:16:12;;;;;;;;;;;;;;;18.68;46.82;100325.09;2059556;28;20023;-66
2021/03/31 04:17:16;;;;;;;3.97;2.10;;;;;;;18.69;46.86;100324.09;2063293;28;19914;-66
2021/03/31 04:18:19;;;;;;;2.97;2.17;;;;;;;18.70;46.54;100320.34;2061796;28;20082;-66
2021/03/31 04:19:22;;;;;;;2.95;2.33;;;;;;;18.71;46.69;100322.06;2056082;28;20101;-65
2021/03/31 04:20:25;;;;;;;4.38;2.33;;;;;;;18.71;46.38;100327.53;2062875;28;20471;-66
2021/03/31 04:21:26;;;;;;;4.65;2.38;;;;;;;18.71;46.45;100322.06;2054942;28;20563;-66
2021/03/31 04:22:27;;;;;;;3.13;2.40;;;;;;;18.73;46.56;100324.66;2060744;28;20044;-66
2021/03/31 04:23:29;;;;;;;4.37;2.30;;;;;;;18.72;46.46;100323.81;2057222;28;20030;-66
2021/03/31 04:24:29;;;;;;;4.03;2.60;;;;;;;18.72;46.68;100321.09;2061129;28;20034;-66
2021/03/31 04:25:29;;;;;;;3.73;2.70;;;;;;;18.73;46.61;100331.00;2059617;28;20037;-66
2021/03/31 04:26:31;;;;;;;2.90;2.20;;;;;;;18.73;46.49;100332.88;2062527;28;20034;-66
2021/03/31 04:27:34;;;;;;;2.75;2.40;;;;;;;18.73;46.57;100325.53;2063083;28;20054;-66
2021/03/31 04:28:36;;;;;;;2.90;2.35;;;;;;;18.72;46.76;100329.28;2059749;28;20413;-66
2021/03/31 04:29:42;;;;;;;3.50;2.20;;;;;;;18.72;46.76;100323.81;2063279;28;20038;-66
2021/03/31 04:30:42;;;;;;;3.85;2.53;;;;;;;18.73;46.62;100330.13;2060740;28;20104;-66
2021/03/31 04:31:43;;;;;;;3.30;2.23;;;;;;;18.72;46.56;100323.81;2062436;28;20030;-66
2021/03/31 04:32:47;;;;;;;3.33;2.17;;;;;;;18.72;46.49;100329.28;2063315;28;20054;-66
2021/03/31 04:33:48;;;;;;;3.80;2.30;;;;;;;18.72;46.48;100329.28;2059201;28;20034;-66
2021/03/31 04:34:49;;;;;;;2.70;2.20;;;;;;;18.74;46.65;100329.13;2055469;28;20034;-66
2021/03/31 04:35:53;;;;;;;4.15;2.35;;;;;;;18.72;46.62;100328.41;2063135;28;20035;-66
2021/03/31 04:36:54;;;;;;;2.90;2.00;;;;;;;18.71;46.50;100322.06;2062753;28;20061;-66
2021/03/31 04:38:14;;;;;;;3.00;2.30;;;;;;;18.69;46.58;100318.66;2063112;28;20062;-66
2021/03/31 04:39:15;;;;;;;4.15;2.70;;;;;;;18.71;46.51;100321.22;2061430;28;20038;-66
2021/03/31 04:40:18;;;;;;;3.37;2.07;;;;;;;18.71;46.68;100322.06;2063082;28;20044;-66
2021/03/31 04:41:19;;;;;;;3.22;2.30;;;;;;;18.71;46.52;100318.47;2062417;28;20374;-66
2021/03/31 04:42:19;;;;;;;2.47;2.20;;;;;;;18.72;46.54;100321.09;2060978;28;20137;-66
2021/03/31 04:43:21;;;;;;;2.70;2.17;;;;;;;18.72;46.59;100323.81;2062121;28;20028;-66
2021/03/31 04:44:21;;;;;;;2.60;2.25;;;;;;;18.72;46.75;100326.53;2063223;28;20489;-66
2021/03/31 04:45:22;;;;;;;3.30;2.10;;;;;;;18.72;46.85;100318.34;2062873;28;20667;-66
2021/03/31 04:46:22;;;;;;;3.10;2.20;;;;;;;18.72;46.66;100329.28;2057392;28;20030;-66
2021/03/31 04:47:23;;;;;;;2.00;1.70;;;;;;;18.71;46.72;100327.53;2060849;28;20034;-66
2021/03/31 04:48:23;;;;;;;3.83;2.17;;;;;;;18.72;46.68;100322.97;2061948;28;20485;-66
2021/03/31 04:49:24;;;;;;;3.73;2.10;;;;;;;18.71;46.94;100318.47;2062680;28;20073;-67
2021/03/31 04:50:24;;;;;;;3.27;2.17;;;;;;;18.71;46.68;100319.34;2062314;28;20102;-67
2021/03/31 04:51:25;;;;;;;3.97;2.50;;;;;;;18.72;46.74;100322.97;2055671;28;20097;-66
2021/03/31 04:52:26;;;;;;;4.63;2.47;;;;;;;18.71;46.91;100327.53;2060766;28;20042;-66
2021/03/31 04:53:26;;;;;;;2.35;1.83;;;;;;;18.71;46.74;100327.53;2060936;28;20034;-66
2021/03/31 04:54:27;;;;;;;5.07;2.73;;;;;;;18.71;46.68;100311.16;2062290;28;20030;-66
2021/03/31 04:55:27;;;;;;;3.77;2.50;;;;;;;18.71;46.68;100322.06;2059750;28;20035;-67
2021/03/31 04:56:27;;;;;;;3.00;2.50;;;;;;;18.71;46.76;100322.06;2059344;28;20031;-66